EST,Max TemperatureF,Mean TemperatureF,Min TemperatureF,Max Dew PointF,MeanDew PointF,Min DewpointF,Max Humidity, Mean Humidity, Min Humidity, Max Sea Level PressureIn, Mean Sea Level PressureIn, Min Sea Level PressureIn, Max VisibilityMiles, Mean VisibilityMiles, Min VisibilityMiles, Max Wind SpeedMPH, Mean Wind SpeedMPH, Max Gust SpeedMPH,PrecipitationIn, CloudCover, Events, WindDirDegrees
2013-11-1,81,76,70,70,68,66,97,82,67,29.99,29.85,29.76,10,10,5,24,15,31,0.14,4,Rain,215
2013-11-2,72,63,53,70,61,48,100,80,59,29.94,29.79,29.73,10,9,3,14,3,23,0.56,4,Rain,277
2013-11-3,66,56,46,48,42,37,89,63,37,30.32,30.13,29.94,10,10,10,14,6,21,0.00,0,,2
2013-11-4,64,54,44,41,38,34,77,60,43,30.47,30.42,30.32,10,10,10,20,11,26,0.00,0,,39
2013-11-5,69,56,42,58,49,38,100,83,66,30.44,30.41,30.35,10,8,2,15,8,20,0.03,5,Rain,17
2013-11-6,77,67,56,65,60,49,93,77,60,30.34,30.20,30.10,10,8,2,14,7,17,0.18,7,Rain,43
2013-11-7,74,66,57,65,63,45,100,82,64,30.10,30.01,29.93,10,8,2,14,6,24,0.61,6,Rain,338
2013-11-8,60,50,39,40,33,25,92,59,25,30.31,30.23,30.07,10,10,10,20,8,28,0.00,0,,13
2013-11-9,63,49,35,50,40,31,89,66,42,30.37,30.30,30.22,10,10,10,9,3,10,0.00,0,,42
2013-11-10,70,59,47,50,46,40,93,65,36,30.25,30.19,30.12,10,10,6,10,2,14,0.00,0,,275
2013-11-11,63,53,42,45,37,31,93,64,34,30.32,30.24,30.18,10,10,9,18,6,24,0.00,0,,41
2013-11-12,70,54,37,44,38,25,96,64,31,30.37,30.13,30.02,10,9,4,29,8,40,T,4,Snow,351
2013-11-13,48,38,27,31,22,15,85,57,28,30.52,30.45,30.35,10,10,9,20,8,28,T,1,,9
2013-11-14,59,41,23,40,28,19,92,58,24,30.52,30.44,30.37,10,10,10,8,1,12,0.00,0,,67
2013-11-15,65,51,36,60,49,34,90,73,55,30.35,30.27,30.20,10,9,2,14,6,20,0.05,4,Rain,61
2013-11-16,74,66,57,62,59,56,100,84,68,30.23,30.20,30.17,10,7,2,9,4,14,T,5,,60
2013-11-17,76,64,52,68,61,52,100,87,73,30.18,30.08,30.00,10,4,0,17,5,21,T,5,Fog-Rain,107
2013-11-18,82,73,63,68,64,41,100,78,56,30.00,29.90,29.81,10,8,0,16,8,21,T,5,Fog-Rain,235
2013-11-19,63,54,45,38,31,27,65,46,27,30.25,30.09,29.93,10,10,10,22,10,30,0.00,0,,28
2013-11-20,61,52,42,43,38,32,74,60,46,30.37,30.31,30.25,10,10,10,20,12,25,0.00,4,,33
2013-11-21,72,60,48,58,51,43,93,77,61,30.40,30.37,30.34,10,10,10,17,8,24,0.00,5,,34
2013-11-22,70,65,59,62,59,57,100,88,76,30.34,30.27,30.14,10,6,0,10,4,12,0.06,7,Fog-Rain,44
2013-11-23,65,59,53,63,58,37,93,80,66,30.12,30.07,30.02,10,7,2,18,5,26,0.08,7,Rain,331
2013-11-24,53,40,27,35,15,5,58,39,19,30.54,30.37,30.12,10,10,10,22,9,32,0.00,0,,7
2013-11-25,49,37,24,28,16,5,70,45,20,30.59,30.48,30.32,10,10,10,14,7,18,0.00,1,,29
2013-11-26,70,54,37,66,60,28,100,85,70,30.31,29.84,29.63,10,6,2,37,11,46,1.71,7,Rain-Thunderstorm,169
2013-11-27,68,52,35,64,52,25,93,82,70,30.19,29.66,29.48,10,8,2,24,10,32,0.08,7,Rain,263
2013-11-28,47,38,29,30,22,17,92,63,33,30.50,30.40,30.21,10,10,10,18,5,22,0.00,0,,355
2013-11-29,58,44,30,32,27,24,78,53,28,30.56,30.51,30.48,10,10,10,15,7,20,0.00,0,,26
2013-11-30,57,46,34,40,34,26,75,63,51,30.55,30.46,30.32,10,10,10,15,8,20,0.00,4,,15